createdAt,value
2017-10-23T00:00:27.000Z,8.83
2017-10-23T00:01:27.000Z,8.82
2017-10-23T00:02:27.000Z,8.78
2017-10-23T00:03:27.000Z,8.74
2017-10-23T00:04:27.000Z,8.73
2017-10-23T00:05:27.000Z,8.74
2017-10-23T00:06:27.000Z,8.69
2017-10-23T00:07:27.000Z,8.64
2017-10-23T00:08:27.000Z,8.63
2017-10-23T00:09:27.000Z,8.62
2017-10-23T00:10:27.000Z,8.58
2017-10-23T00:11:27.000Z,8.57
2017-10-23T00:12:27.000Z,8.52
2017-10-23T00:13:27.000Z,8.50
2017-10-23T00:14:27.000Z,8.51
2017-10-23T00:15:27.000Z,8.50
2017-10-23T00:16:27.000Z,8.47
2017-10-23T00:17:27.000Z,8.47
2017-10-23T00:18:27.000Z,8.49
2017-10-23T00:19:27.000Z,8.49
2017-10-23T00:20:27.000Z,8.48
2017-10-23T00:21:27.000Z,8.48
2017-10-23T00:22:27.000Z,8.45
2017-10-23T00:23:27.000Z,8.44
2017-10-23T00:24:27.000Z,8.39
2017-10-23T00:25:27.000Z,8.35
2017-10-23T00:26:27.000Z,8.30
2017-10-23T00:27:27.000Z,8.30
2017-10-23T00:28:27.000Z,8.30
2017-10-23T00:29:27.000Z,8.27
2017-10-23T00:30:27.000Z,8.22
2017-10-23T00:31:27.000Z,8.20
2017-10-23T00:32:27.000Z,8.20
2017-10-23T00:33:27.000Z,8.21
2017-10-23T00:34:27.000Z,8.17
2017-10-23T00:35:27.000Z,8.17
2017-10-23T00:36:27.000Z,8.17
2017-10-23T00:37:27.000Z,8.20
2017-10-23T00:38:27.000Z,8.20
2017-10-23T00:39:27.000Z,8.23
2017-10-23T00:40:27.000Z,8.28
2017-10-23T00:41:27.000Z,8.32
2017-10-23T00:42:27.000Z,8.34
2017-10-23T00:43:27.000Z,8.36
2017-10-23T00:44:27.000Z,8.36
2017-10-23T00:45:27.000Z,8.40
2017-10-23T00:46:27.000Z,8.40
2017-10-23T00:47:27.000Z,8.40
2017-10-23T00:48:27.000Z,8.43
2017-10-23T00:49:27.000Z,8.48
2017-10-23T00:50:27.000Z,8.54
2017-10-23T00:51:27.000Z,8.59
2017-10-23T00:52:27.000Z,8.62
2017-10-23T00:53:27.000Z,8.64
2017-10-23T00:54:27.000Z,8.64
2017-10-23T00:55:27.000Z,8.65
2017-10-23T00:56:27.000Z,8.65
2017-10-23T00:57:27.000Z,8.66
2017-10-23T00:58:27.000Z,8.67
2017-10-23T00:59:27.000Z,8.67
2017-10-23T01:02:32.000Z,8.68
2017-10-23T01:02:33.000Z,8.65
2017-10-23T01:02:34.000Z,8.68
2017-10-23T01:05:45.000Z,8.68
2017-10-23T01:05:47.000Z,8.70
2017-10-23T01:05:48.000Z,8.72
2017-10-23T01:09:08.000Z,8.72
2017-10-23T01:09:10.000Z,8.73
2017-10-23T01:09:10.000Z,8.71
2017-10-23T01:11:48.000Z,8.74
2017-10-23T01:11:50.000Z,8.76
2017-10-23T01:11:51.000Z,8.73
2017-10-23T01:14:32.000Z,8.72
2017-10-23T01:14:33.000Z,8.72
2017-10-23T01:14:34.000Z,8.74
2017-10-23T01:17:32.000Z,8.74
2017-10-23T01:20:03.000Z,8.74
2017-10-23T01:20:05.000Z,8.73
2017-10-23T01:20:06.000Z,8.76
2017-10-23T01:20:06.000Z,8.72
2017-10-23T01:20:07.000Z,8.80
2017-10-23T01:20:27.000Z,8.82
2017-10-23T01:23:49.000Z,8.82
2017-10-23T01:23:50.000Z,8.86
2017-10-23T01:23:51.000Z,8.82
2017-10-23T01:26:31.000Z,8.79
2017-10-23T01:26:33.000Z,8.80
2017-10-23T01:26:34.000Z,8.81
2017-10-23T01:29:48.000Z,8.83
2017-10-23T01:29:50.000Z,8.87
2017-10-23T01:29:51.000Z,8.89
2017-10-23T01:32:32.000Z,8.86
2017-10-23T01:32:34.000Z,8.89
2017-10-23T01:32:34.000Z,8.85
2017-10-23T01:35:38.000Z,8.91
2017-10-23T01:35:40.000Z,8.92
2017-10-23T01:35:41.000Z,8.91
2017-10-23T01:38:32.000Z,8.93
2017-10-23T01:38:34.000Z,8.91
2017-10-23T01:38:34.000Z,8.92
2017-10-23T01:41:48.000Z,8.89
2017-10-23T01:41:50.000Z,8.92
2017-10-23T01:41:51.000Z,8.93
2017-10-23T01:44:32.000Z,8.98
2017-10-23T01:44:34.000Z,8.99
2017-10-23T01:44:34.000Z,8.99
2017-10-23T01:47:48.000Z,8.97
2017-10-23T01:47:50.000Z,8.98
2017-10-23T01:47:51.000Z,8.99
2017-10-23T01:51:07.000Z,8.99
2017-10-23T01:51:09.000Z,8.99
2017-10-23T01:51:10.000Z,9.02
2017-10-23T01:53:48.000Z,9.03
2017-10-23T01:53:50.000Z,9.04
2017-10-23T01:53:51.000Z,9.05
2017-10-23T01:56:31.000Z,9.06
2017-10-23T01:56:33.000Z,9.09
2017-10-23T01:56:34.000Z,9.07
2017-10-23T01:59:48.000Z,9.09
2017-10-23T01:59:50.000Z,9.09
2017-10-23T01:59:51.000Z,9.15
2017-10-23T02:00:27.000Z,9.17
2017-10-23T02:01:27.000Z,9.19
2017-10-23T02:02:27.000Z,9.22
2017-10-23T02:03:27.000Z,9.22
2017-10-23T02:04:27.000Z,9.23
2017-10-23T02:05:27.000Z,9.24
2017-10-23T02:06:27.000Z,9.23
2017-10-23T02:07:27.000Z,9.21
2017-10-23T02:08:27.000Z,9.20
2017-10-23T02:09:27.000Z,9.20
2017-10-23T02:10:27.000Z,9.21
2017-10-23T02:11:27.000Z,9.19
2017-10-23T02:12:27.000Z,9.14
2017-10-23T02:13:27.000Z,9.07
2017-10-23T02:14:27.000Z,9.07
2017-10-23T02:15:27.000Z,9.09
2017-10-23T02:16:27.000Z,9.10
2017-10-23T02:17:27.000Z,9.10
2017-10-23T02:18:27.000Z,9.11
2017-10-23T02:19:27.000Z,9.12
2017-10-23T02:20:27.000Z,9.10
2017-10-23T02:21:27.000Z,9.10
2017-10-23T02:22:27.000Z,9.13
2017-10-23T02:23:27.000Z,9.14
2017-10-23T02:24:27.000Z,9.12
2017-10-23T02:25:27.000Z,9.11
2017-10-23T02:26:27.000Z,9.08
2017-10-23T02:27:27.000Z,9.02
2017-10-23T02:28:27.000Z,8.95
2017-10-23T02:29:27.000Z,8.93
2017-10-23T02:30:27.000Z,8.93
2017-10-23T02:31:27.000Z,8.95
2017-10-23T02:32:27.000Z,8.89
2017-10-23T02:33:27.000Z,8.89
2017-10-23T02:34:27.000Z,8.80
2017-10-23T02:35:27.000Z,8.77
2017-10-23T02:36:27.000Z,8.69
2017-10-23T02:37:27.000Z,8.64
2017-10-23T02:38:27.000Z,8.64
2017-10-23T02:39:28.000Z,8.65
2017-10-23T02:40:27.000Z,8.67
2017-10-23T02:41:27.000Z,8.70
2017-10-23T02:42:27.000Z,8.74
2017-10-23T02:43:27.000Z,8.73
2017-10-23T02:44:27.000Z,8.73
2017-10-23T02:45:27.000Z,8.73
2017-10-23T02:46:27.000Z,8.75
2017-10-23T02:47:27.000Z,8.77
2017-10-23T02:48:27.000Z,8.79
2017-10-23T02:49:27.000Z,8.81
2017-10-23T02:50:27.000Z,8.84
2017-10-23T02:51:27.000Z,8.88
2017-10-23T02:52:27.000Z,8.90
2017-10-23T02:53:27.000Z,8.91
2017-10-23T02:54:27.000Z,8.89
2017-10-23T02:55:27.000Z,8.89
2017-10-23T02:56:27.000Z,8.91
2017-10-23T02:57:27.000Z,8.94
2017-10-23T02:58:27.000Z,8.97
2017-10-23T02:59:27.000Z,8.97
2017-10-23T03:00:27.000Z,9.00
2017-10-23T03:01:27.000Z,9.00
2017-10-23T03:02:27.000Z,8.98
2017-10-23T03:03:27.000Z,8.98
2017-10-23T03:04:27.000Z,8.98
2017-10-23T03:05:27.000Z,8.99
2017-10-23T03:06:27.000Z,9.00
2017-10-23T03:07:27.000Z,9.03
2017-10-23T03:08:27.000Z,9.02
2017-10-23T03:09:27.000Z,9.04
2017-10-23T03:10:27.000Z,9.04
2017-10-23T03:11:27.000Z,9.03
2017-10-23T03:12:27.000Z,9.06
2017-10-23T03:13:27.000Z,9.06
2017-10-23T03:14:27.000Z,9.09
2017-10-23T03:15:27.000Z,9.09
2017-10-23T03:16:27.000Z,9.05
2017-10-23T03:17:27.000Z,9.08
2017-10-23T03:18:27.000Z,9.07
2017-10-23T03:19:27.000Z,9.07
2017-10-23T03:20:27.000Z,9.09
2017-10-23T03:21:27.000Z,9.09
2017-10-23T03:22:27.000Z,9.06
2017-10-23T03:23:27.000Z,9.07
2017-10-23T03:24:27.000Z,9.12
2017-10-23T03:25:27.000Z,9.15
2017-10-23T03:26:27.000Z,9.17
2017-10-23T03:27:27.000Z,9.19
2017-10-23T03:28:27.000Z,9.16
2017-10-23T03:29:27.000Z,9.13
2017-10-23T03:30:27.000Z,9.12
2017-10-23T03:31:27.000Z,9.13
2017-10-23T03:32:43.000Z,9.13
2017-10-23T03:34:40.000Z,9.13
2017-10-23T03:34:42.000Z,9.12
2017-10-23T03:34:43.000Z,9.10
2017-10-23T03:35:27.000Z,9.07
2017-10-23T03:36:27.000Z,9.07
2017-10-23T03:37:27.000Z,9.07
2017-10-23T03:38:27.000Z,9.06
2017-10-23T03:39:27.000Z,9.04
2017-10-23T03:40:27.000Z,9.08
2017-10-23T03:41:27.000Z,9.11
2017-10-23T03:42:27.000Z,9.12
2017-10-23T03:43:27.000Z,9.11
2017-10-23T03:44:27.000Z,9.11
2017-10-23T03:45:27.000Z,9.10
2017-10-23T03:46:27.000Z,9.12
2017-10-23T03:47:27.000Z,9.11
2017-10-23T03:48:27.000Z,9.10
2017-10-23T03:49:27.000Z,9.11
2017-10-23T03:50:27.000Z,9.10
2017-10-23T03:51:27.000Z,9.13
2017-10-23T03:52:27.000Z,9.15
2017-10-23T03:53:27.000Z,9.14
2017-10-23T03:54:27.000Z,9.15
2017-10-23T03:55:27.000Z,9.17
2017-10-23T03:56:27.000Z,9.16
2017-10-23T03:57:27.000Z,9.15
2017-10-23T03:58:27.000Z,9.14
2017-10-23T03:59:27.000Z,9.12
2017-10-23T04:00:28.000Z,9.11
2017-10-23T04:01:27.000Z,9.12
2017-10-23T04:02:27.000Z,9.11
2017-10-23T04:03:27.000Z,9.11
2017-10-23T04:04:27.000Z,9.12
2017-10-23T04:05:27.000Z,9.12
2017-10-23T04:06:27.000Z,9.13
2017-10-23T04:07:27.000Z,9.13
2017-10-23T04:08:27.000Z,9.14
2017-10-23T04:09:27.000Z,9.15
2017-10-23T04:10:27.000Z,9.16
2017-10-23T04:11:27.000Z,9.18
2017-10-23T04:12:27.000Z,9.16
2017-10-23T04:13:27.000Z,9.16
2017-10-23T04:14:27.000Z,9.17
2017-10-23T04:15:28.000Z,9.19
2017-10-23T04:16:27.000Z,9.18
2017-10-23T04:17:27.000Z,9.15
2017-10-23T04:18:27.000Z,9.13
2017-10-23T04:19:27.000Z,9.14
2017-10-23T04:20:27.000Z,9.15
2017-10-23T04:21:27.000Z,9.17
2017-10-23T04:22:27.000Z,9.15
2017-10-23T04:23:27.000Z,9.14
2017-10-23T04:24:27.000Z,9.15
2017-10-23T04:25:27.000Z,9.14
2017-10-23T04:26:27.000Z,9.17
2017-10-23T04:27:27.000Z,9.15
2017-10-23T04:28:27.000Z,9.09
2017-10-23T04:29:27.000Z,9.10
2017-10-23T04:30:27.000Z,9.11
2017-10-23T04:31:27.000Z,9.15
2017-10-23T04:32:27.000Z,9.15
2017-10-23T04:33:27.000Z,9.18
2017-10-23T04:34:27.000Z,9.20
2017-10-23T04:35:28.000Z,9.14
2017-10-23T04:36:27.000Z,9.10
2017-10-23T04:37:28.000Z,9.13
2017-10-23T04:38:28.000Z,9.15
2017-10-23T04:39:28.000Z,9.17
2017-10-23T04:40:28.000Z,9.20
2017-10-23T04:41:28.000Z,9.22
2017-10-23T04:42:28.000Z,9.22
2017-10-23T04:43:28.000Z,9.20
2017-10-23T04:44:28.000Z,9.20
2017-10-23T04:45:28.000Z,9.18
2017-10-23T04:46:28.000Z,9.17
2017-10-23T04:47:28.000Z,9.15
2017-10-23T04:48:28.000Z,9.13
2017-10-23T04:49:28.000Z,9.14
2017-10-23T04:50:28.000Z,9.15
2017-10-23T04:51:28.000Z,9.16
2017-10-23T04:52:28.000Z,9.13
2017-10-23T04:53:28.000Z,9.15
2017-10-23T04:54:28.000Z,9.18
2017-10-23T04:55:28.000Z,9.16
2017-10-23T04:56:28.000Z,9.13
2017-10-23T04:57:28.000Z,9.11
2017-10-23T04:58:28.000Z,9.09
2017-10-23T04:59:28.000Z,9.12
2017-10-23T05:00:28.000Z,9.14
2017-10-23T05:01:28.000Z,9.18
2017-10-23T05:02:28.000Z,9.20
2017-10-23T05:03:28.000Z,9.19
2017-10-23T05:04:28.000Z,9.15
2017-10-23T05:05:28.000Z,9.16
2017-10-23T05:06:28.000Z,9.14
2017-10-23T05:07:28.000Z,9.13
2017-10-23T05:08:28.000Z,9.16
2017-10-23T05:09:28.000Z,9.18
2017-10-23T05:10:28.000Z,9.19
2017-10-23T05:11:28.000Z,9.19
2017-10-23T05:12:28.000Z,9.19
2017-10-23T05:13:28.000Z,9.20
2017-10-23T05:14:28.000Z,9.21
2017-10-23T05:15:28.000Z,9.19
2017-10-23T05:16:28.000Z,9.18
2017-10-23T05:17:28.000Z,9.15
2017-10-23T05:18:28.000Z,9.16
2017-10-23T05:19:28.000Z,9.17
2017-10-23T05:20:28.000Z,9.19
2017-10-23T05:21:28.000Z,9.18
2017-10-23T05:22:28.000Z,9.14
2017-10-23T05:23:28.000Z,9.14
2017-10-23T05:24:28.000Z,9.16
2017-10-23T05:25:28.000Z,9.16
2017-10-23T05:26:28.000Z,9.15
2017-10-23T05:27:28.000Z,9.14
2017-10-23T05:28:28.000Z,9.11
2017-10-23T05:29:28.000Z,9.08
2017-10-23T05:30:28.000Z,9.04
2017-10-23T05:31:28.000Z,9.02
2017-10-23T05:32:28.000Z,9.06
2017-10-23T05:33:28.000Z,9.09
2017-10-23T05:34:28.000Z,9.07
2017-10-23T05:35:28.000Z,9.07
2017-10-23T05:36:28.000Z,9.11
2017-10-23T05:37:28.000Z,9.13
2017-10-23T05:38:28.000Z,9.13
2017-10-23T05:39:28.000Z,9.14
2017-10-23T05:40:28.000Z,9.14
2017-10-23T05:41:28.000Z,9.12
2017-10-23T05:42:28.000Z,9.09
2017-10-23T05:43:28.000Z,9.06
2017-10-23T05:44:28.000Z,9.08
2017-10-23T05:45:28.000Z,9.12
2017-10-23T05:46:28.000Z,9.16
2017-10-23T05:47:28.000Z,9.18
2017-10-23T05:48:28.000Z,9.20
2017-10-23T05:49:28.000Z,9.20
2017-10-23T05:50:28.000Z,9.20
2017-10-23T05:51:28.000Z,9.18
2017-10-23T05:52:28.000Z,9.19
2017-10-23T05:53:28.000Z,9.18
2017-10-23T05:54:28.000Z,9.20
2017-10-23T05:55:28.000Z,9.20
2017-10-23T05:56:28.000Z,9.19
2017-10-23T05:57:28.000Z,9.19
2017-10-23T05:58:28.000Z,9.20
2017-10-23T05:59:28.000Z,9.18
2017-10-23T06:00:28.000Z,9.15
2017-10-23T06:01:28.000Z,9.16
2017-10-23T06:02:28.000Z,9.15
2017-10-23T06:03:28.000Z,9.18
2017-10-23T06:04:28.000Z,9.19
2017-10-23T06:05:28.000Z,9.21
2017-10-23T06:06:28.000Z,9.22
2017-10-23T06:07:28.000Z,9.25
2017-10-23T06:08:28.000Z,9.25
2017-10-23T06:09:28.000Z,9.28
2017-10-23T06:10:28.000Z,9.28
2017-10-23T07:24:24.000Z,9.58
2017-10-23T07:24:29.000Z,9.56
2017-10-23T07:25:28.000Z,9.49
2017-10-23T07:26:28.000Z,9.45
2017-10-23T07:27:28.000Z,9.42
2017-10-23T07:28:28.000Z,9.42
2017-10-23T07:29:28.000Z,9.44
2017-10-23T07:30:28.000Z,9.47
2017-10-23T07:31:28.000Z,9.50
2017-10-23T07:32:28.000Z,9.45
2017-10-23T07:33:28.000Z,9.44
2017-10-23T07:34:28.000Z,9.45
2017-10-23T07:35:28.000Z,9.49
2017-10-23T07:36:29.000Z,9.50
2017-10-23T07:37:28.000Z,9.49
2017-10-23T07:38:29.000Z,9.45
2017-10-23T07:39:28.000Z,9.44
2017-10-23T07:40:28.000Z,9.47
2017-10-23T07:41:28.000Z,9.50
2017-10-23T07:42:28.000Z,9.53
2017-10-23T07:43:28.000Z,9.56
2017-10-23T07:44:28.000Z,9.58
2017-10-23T07:45:28.000Z,9.62
2017-10-23T07:46:28.000Z,9.68
2017-10-23T07:47:28.000Z,9.68
2017-10-23T07:48:28.000Z,9.63
2017-10-23T07:49:28.000Z,9.62
2017-10-23T07:50:28.000Z,9.62
2017-10-23T07:51:28.000Z,9.62
2017-10-23T07:52:28.000Z,9.65
2017-10-23T07:53:28.000Z,9.65
2017-10-23T07:54:28.000Z,9.66
2017-10-23T07:55:28.000Z,9.70
2017-10-23T07:56:28.000Z,9.71
2017-10-23T07:57:28.000Z,9.73
2017-10-23T07:58:28.000Z,9.71
2017-10-23T07:59:28.000Z,9.74
2017-10-23T08:00:28.000Z,9.77
2017-10-23T08:01:28.000Z,9.81
2017-10-23T08:02:28.000Z,9.83
2017-10-23T08:03:28.000Z,9.92
2017-10-23T08:04:28.000Z,9.93
2017-10-23T08:05:28.000Z,9.96
2017-10-23T08:06:28.000Z,10.03
2017-10-23T08:07:28.000Z,10.06
2017-10-23T08:08:28.000Z,10.09
2017-10-23T08:09:28.000Z,10.13
2017-10-23T08:10:28.000Z,10.11
2017-10-23T08:11:28.000Z,10.13
2017-10-23T08:12:28.000Z,10.16
2017-10-23T08:13:28.000Z,10.20
2017-10-23T08:14:28.000Z,10.24
2017-10-23T08:15:29.000Z,10.28
2017-10-23T08:16:28.000Z,10.28
2017-10-23T08:17:28.000Z,10.34
2017-10-23T08:18:28.000Z,10.39
2017-10-23T08:19:28.000Z,10.43
2017-10-23T08:20:28.000Z,10.49
2017-10-23T08:21:28.000Z,10.50
2017-10-23T08:22:28.000Z,10.48
2017-10-23T08:23:28.000Z,10.48
2017-10-23T08:24:28.000Z,10.50
2017-10-23T08:25:28.000Z,10.51
2017-10-23T08:26:28.000Z,10.53
2017-10-23T08:27:28.000Z,10.50
2017-10-23T08:28:28.000Z,10.51
2017-10-23T08:29:28.000Z,10.57
2017-10-23T08:30:28.000Z,10.61
2017-10-23T08:31:28.000Z,10.58
2017-10-23T08:32:28.000Z,10.56
2017-10-23T08:33:28.000Z,10.58
2017-10-23T08:34:28.000Z,10.63
2017-10-23T08:35:28.000Z,10.60
2017-10-23T08:36:28.000Z,10.59
2017-10-23T08:37:28.000Z,10.58
2017-10-23T08:38:28.000Z,10.51
2017-10-23T08:39:28.000Z,10.47
2017-10-23T08:40:28.000Z,10.47
2017-10-23T08:41:28.000Z,10.51
2017-10-23T08:42:28.000Z,10.47
2017-10-23T08:43:28.000Z,10.49
2017-10-23T08:44:28.000Z,10.51
2017-10-23T08:45:28.000Z,10.48
2017-10-23T08:46:28.000Z,10.48
2017-10-23T08:47:28.000Z,10.50
2017-10-23T08:48:28.000Z,10.54
2017-10-23T08:49:28.000Z,10.54
2017-10-23T08:50:28.000Z,10.57
2017-10-23T08:51:28.000Z,10.61
2017-10-23T08:52:28.000Z,10.68
2017-10-23T08:53:28.000Z,10.67
2017-10-23T08:54:28.000Z,10.66
2017-10-23T08:55:28.000Z,10.66
2017-10-23T08:56:28.000Z,10.70
2017-10-23T08:57:28.000Z,10.65
2017-10-23T08:58:28.000Z,10.71
2017-10-23T08:59:28.000Z,10.74
2017-10-23T09:00:28.000Z,10.73
2017-10-23T09:01:28.000Z,10.73
2017-10-23T09:02:28.000Z,10.76
2017-10-23T09:03:28.000Z,10.80
2017-10-23T09:04:28.000Z,10.85
2017-10-23T09:05:28.000Z,10.78
2017-10-23T09:06:28.000Z,10.80
2017-10-23T09:07:28.000Z,10.79
2017-10-23T09:08:28.000Z,10.73
2017-10-23T09:09:28.000Z,10.73
2017-10-23T09:10:28.000Z,10.70
2017-10-23T09:11:28.000Z,10.79
2017-10-23T09:12:28.000Z,10.80
2017-10-23T09:13:28.000Z,10.76
2017-10-23T09:14:28.000Z,10.80
2017-10-23T09:15:28.000Z,10.85
2017-10-23T09:16:28.000Z,10.94
2017-10-23T09:17:29.000Z,11.01
2017-10-23T09:18:28.000Z,11.04
2017-10-23T09:19:28.000Z,11.12
2017-10-23T09:20:28.000Z,11.18
2017-10-23T09:21:28.000Z,11.23
2017-10-23T09:22:28.000Z,11.26
2017-10-23T09:23:28.000Z,11.25
2017-10-23T09:24:28.000Z,11.26
2017-10-23T09:25:28.000Z,11.26
2017-10-23T09:26:28.000Z,11.28
2017-10-23T09:27:28.000Z,11.31
2017-10-23T09:28:28.000Z,11.32
2017-10-23T09:29:28.000Z,11.35
2017-10-23T09:30:28.000Z,11.37
2017-10-23T09:31:28.000Z,11.42
2017-10-23T09:32:28.000Z,11.46
2017-10-23T09:33:28.000Z,11.47
2017-10-23T09:34:29.000Z,11.46
2017-10-23T09:35:29.000Z,11.55
2017-10-23T09:36:29.000Z,11.62
2017-10-23T09:37:29.000Z,11.62
2017-10-23T09:38:29.000Z,11.65
2017-10-23T09:39:29.000Z,11.66
2017-10-23T09:40:29.000Z,11.71
2017-10-23T09:41:29.000Z,11.76
2017-10-23T09:42:29.000Z,11.76
2017-10-23T09:43:29.000Z,11.74
2017-10-23T09:44:29.000Z,11.76
2017-10-23T09:45:29.000Z,11.84
2017-10-23T09:46:29.000Z,11.94
2017-10-23T09:47:29.000Z,12.00
2017-10-23T09:48:29.000Z,12.02
2017-10-23T09:49:29.000Z,12.04
2017-10-23T09:50:29.000Z,12.01
2017-10-23T09:51:29.000Z,11.99
2017-10-23T09:52:29.000Z,12.00
2017-10-23T09:53:29.000Z,11.89
2017-10-23T09:54:29.000Z,11.82
2017-10-23T09:55:29.000Z,11.83
2017-10-23T09:56:29.000Z,11.84
2017-10-23T09:57:29.000Z,11.91
2017-10-23T09:58:29.000Z,11.97
2017-10-23T09:59:29.000Z,11.91
2017-10-23T10:00:29.000Z,11.87
2017-10-23T10:01:29.000Z,11.93
2017-10-23T10:02:29.000Z,12.04
2017-10-23T10:03:29.000Z,12.19
2017-10-23T10:04:29.000Z,12.32
2017-10-23T10:05:29.000Z,12.42
2017-10-23T10:06:29.000Z,12.52
2017-10-23T10:07:29.000Z,12.60
2017-10-23T10:08:29.000Z,12.67
2017-10-23T10:09:29.000Z,12.67
2017-10-23T10:10:29.000Z,12.65
2017-10-23T10:11:29.000Z,12.68
2017-10-23T10:12:29.000Z,12.58
2017-10-23T10:13:29.000Z,12.52
2017-10-23T10:14:29.000Z,12.46
2017-10-23T10:15:29.000Z,12.40
2017-10-23T10:16:29.000Z,12.24
2017-10-23T10:17:29.000Z,12.14
2017-10-23T10:18:29.000Z,12.08
2017-10-23T10:19:29.000Z,12.07
2017-10-23T10:20:29.000Z,12.05
2017-10-23T10:21:29.000Z,12.02
2017-10-23T10:22:29.000Z,11.99
2017-10-23T10:23:29.000Z,11.99
2017-10-23T10:24:29.000Z,12.03
2017-10-23T10:25:29.000Z,12.07
2017-10-23T10:26:29.000Z,12.09
2017-10-23T10:27:29.000Z,12.01
2017-10-23T10:28:29.000Z,12.00
2017-10-23T10:29:29.000Z,11.97
2017-10-23T10:30:29.000Z,11.99
2017-10-23T10:31:29.000Z,11.99
2017-10-23T10:32:29.000Z,12.01
2017-10-23T10:33:29.000Z,11.99
2017-10-23T10:34:29.000Z,11.99
2017-10-23T10:35:29.000Z,12.00
2017-10-23T10:36:29.000Z,12.01
2017-10-23T10:37:29.000Z,11.95
2017-10-23T10:38:29.000Z,11.99
2017-10-23T10:39:29.000Z,11.99
2017-10-23T10:40:29.000Z,11.94
2017-10-23T10:41:29.000Z,11.98
2017-10-23T10:42:29.000Z,12.00
2017-10-23T10:43:29.000Z,11.98
2017-10-23T10:44:29.000Z,11.97
2017-10-23T10:45:29.000Z,11.96
2017-10-23T10:46:29.000Z,12.01
2017-10-23T10:47:29.000Z,12.00
2017-10-23T10:48:29.000Z,11.97
2017-10-23T10:49:29.000Z,12.01
2017-10-23T10:50:29.000Z,12.03
2017-10-23T10:51:29.000Z,12.10
2017-10-23T10:52:29.000Z,12.07
2017-10-23T10:53:29.000Z,12.05
2017-10-23T10:54:29.000Z,12.03
2017-10-23T10:55:29.000Z,12.00
2017-10-23T10:56:29.000Z,12.03
2017-10-23T10:57:29.000Z,12.09
2017-10-23T10:58:29.000Z,12.13
2017-10-23T10:59:29.000Z,12.21
2017-10-23T11:00:29.000Z,12.19
2017-10-23T11:01:29.000Z,12.20
2017-10-23T11:02:29.000Z,12.25
2017-10-23T11:03:29.000Z,12.30
2017-10-23T11:04:29.000Z,12.35
2017-10-23T11:05:29.000Z,12.32
2017-10-23T11:06:29.000Z,12.33
2017-10-23T11:07:29.000Z,12.33
2017-10-23T11:08:29.000Z,12.35
2017-10-23T11:09:29.000Z,12.31
2017-10-23T11:10:29.000Z,12.31
2017-10-23T11:11:29.000Z,12.24
2017-10-23T11:12:29.000Z,12.23
2017-10-23T11:13:29.000Z,12.22
2017-10-23T11:14:29.000Z,12.20
2017-10-23T11:15:29.000Z,12.19
2017-10-23T11:16:29.000Z,12.15
2017-10-23T11:17:29.000Z,12.17
2017-10-23T11:18:29.000Z,12.16
2017-10-23T11:19:29.000Z,12.13
2017-10-23T11:20:29.000Z,12.02
2017-10-23T11:21:29.000Z,11.98
2017-10-23T11:22:29.000Z,11.98
2017-10-23T11:23:29.000Z,11.99
2017-10-23T11:24:29.000Z,12.00
2017-10-23T11:25:29.000Z,11.98
2017-10-23T11:26:29.000Z,11.98
2017-10-23T11:27:29.000Z,11.98
2017-10-23T11:28:29.000Z,11.97
2017-10-23T11:29:29.000Z,11.98
2017-10-23T11:30:29.000Z,11.97
2017-10-23T11:31:29.000Z,12.00
2017-10-23T11:32:29.000Z,12.03
2017-10-23T11:33:29.000Z,12.07
2017-10-23T11:34:29.000Z,12.06
2017-10-23T11:35:29.000Z,12.10
2017-10-23T11:36:29.000Z,12.07
2017-10-23T11:37:29.000Z,12.10
2017-10-23T11:38:29.000Z,12.11
2017-10-23T11:39:29.000Z,12.11
2017-10-23T11:40:29.000Z,12.08
2017-10-23T11:41:29.000Z,12.15
2017-10-23T11:42:29.000Z,12.19
2017-10-23T11:43:29.000Z,12.23
2017-10-23T11:44:29.000Z,12.26
2017-10-23T11:45:29.000Z,12.31
2017-10-23T11:46:29.000Z,12.36
2017-10-23T11:47:29.000Z,12.35
2017-10-23T11:48:29.000Z,12.40
2017-10-23T11:49:29.000Z,12.43
2017-10-23T11:50:29.000Z,12.47
2017-10-23T11:51:29.000Z,12.48
2017-10-23T11:52:29.000Z,12.52
2017-10-23T11:53:29.000Z,12.54
2017-10-23T11:54:29.000Z,12.50
2017-10-23T11:55:29.000Z,12.51
2017-10-23T11:56:29.000Z,12.53
2017-10-23T11:57:29.000Z,12.51
2017-10-23T11:58:29.000Z,12.54
2017-10-23T11:59:29.000Z,12.58
2017-10-23T12:00:29.000Z,12.63
2017-10-23T12:01:29.000Z,12.67
2017-10-23T12:02:29.000Z,12.69
2017-10-23T12:03:29.000Z,12.80
2017-10-23T12:04:29.000Z,12.91
2017-10-23T12:05:29.000Z,12.99
2017-10-23T12:06:29.000Z,12.97
2017-10-23T12:07:29.000Z,13.06
2017-10-23T12:08:29.000Z,13.14
2017-10-23T12:09:29.000Z,13.17
2017-10-23T12:10:29.000Z,13.25
2017-10-23T12:11:29.000Z,13.36
2017-10-23T12:12:29.000Z,13.41
2017-10-23T12:13:29.000Z,13.47
2017-10-23T12:14:29.000Z,13.42
2017-10-23T12:15:29.000Z,13.32
2017-10-23T12:16:29.000Z,13.23
2017-10-23T12:17:29.000Z,13.14
2017-10-23T12:18:29.000Z,13.07
2017-10-23T12:19:29.000Z,13.05
2017-10-23T12:20:29.000Z,12.99
2017-10-23T12:21:29.000Z,12.95
2017-10-23T12:22:29.000Z,12.98
2017-10-23T12:23:29.000Z,13.01
2017-10-23T12:24:29.000Z,13.03
2017-10-23T12:25:29.000Z,12.99
2017-10-23T12:26:29.000Z,12.94
2017-10-23T12:27:29.000Z,12.85
2017-10-23T12:28:29.000Z,12.80
2017-10-23T12:29:29.000Z,12.79
2017-10-23T12:30:29.000Z,12.76
2017-10-23T12:31:29.000Z,12.78
2017-10-23T12:33:29.000Z,12.84
2017-10-23T12:34:29.000Z,12.84
2017-10-23T12:35:29.000Z,12.86
2017-10-23T12:36:29.000Z,12.89
2017-10-23T12:37:29.000Z,12.89
2017-10-23T12:38:29.000Z,12.83
2017-10-23T12:39:29.000Z,12.80
2017-10-23T12:40:29.000Z,12.78
2017-10-23T12:41:29.000Z,14.00
2017-10-23T12:42:29.000Z,12.67
2017-10-23T12:43:29.000Z,12.63
2017-10-23T12:44:29.000Z,12.61
2017-10-23T12:45:29.000Z,12.60
2017-10-23T12:46:29.000Z,12.61
2017-10-23T12:47:29.000Z,12.62
2017-10-23T12:48:29.000Z,12.66
2017-10-23T12:49:29.000Z,12.67
2017-10-23T12:50:29.000Z,12.67
2017-10-23T12:51:29.000Z,12.69
2017-10-23T12:52:29.000Z,12.69
2017-10-23T12:53:29.000Z,12.65
2017-10-23T12:54:29.000Z,12.66
2017-10-23T12:55:29.000Z,12.68
2017-10-23T12:56:29.000Z,12.69
2017-10-23T12:57:29.000Z,12.65
2017-10-23T12:58:29.000Z,12.65
2017-10-23T12:59:29.000Z,12.63
2017-10-23T13:00:29.000Z,12.59
2017-10-23T13:01:29.000Z,12.58
2017-10-23T13:02:29.000Z,12.56
2017-10-23T13:03:29.000Z,12.55
2017-10-23T13:04:29.000Z,12.55
2017-10-23T13:05:29.000Z,12.55
2017-10-23T13:06:29.000Z,12.56
2017-10-23T13:07:29.000Z,12.54
2017-10-23T13:08:29.000Z,12.52
2017-10-23T13:09:29.000Z,12.51
2017-10-23T13:10:29.000Z,12.50
2017-10-23T13:11:29.000Z,12.51
2017-10-23T13:12:29.000Z,12.46
2017-10-23T13:13:29.000Z,12.39
2017-10-23T13:14:29.000Z,12.32
2017-10-23T13:15:29.000Z,12.31
2017-10-23T13:16:29.000Z,12.27
2017-10-23T13:17:29.000Z,12.20
2017-10-23T13:18:29.000Z,12.21
2017-10-23T13:19:29.000Z,12.20
2017-10-23T13:20:29.000Z,12.20
2017-10-23T13:21:29.000Z,12.20
2017-10-23T13:22:29.000Z,12.15
2017-10-23T13:23:29.000Z,12.14
2017-10-23T13:24:29.000Z,12.13
2017-10-23T13:25:29.000Z,12.14
2017-10-23T13:26:29.000Z,12.11
2017-10-23T13:27:29.000Z,12.10
2017-10-23T13:28:29.000Z,12.12
2017-10-23T13:29:29.000Z,12.11
2017-10-23T13:30:29.000Z,12.13
2017-10-23T13:31:29.000Z,12.08
2017-10-23T13:32:29.000Z,12.11
2017-10-23T13:33:29.000Z,12.13
2017-10-23T13:34:29.000Z,12.17
2017-10-23T13:35:29.000Z,12.21
2017-10-23T13:36:29.000Z,12.24
2017-10-23T13:37:29.000Z,12.26
2017-10-23T13:38:29.000Z,12.26
2017-10-23T13:39:29.000Z,12.27
2017-10-23T13:40:29.000Z,12.27
2017-10-23T13:41:29.000Z,12.27
2017-10-23T13:42:29.000Z,12.30
2017-10-23T13:43:29.000Z,12.30
2017-10-23T13:44:29.000Z,12.25
2017-10-23T13:45:29.000Z,12.22
2017-10-23T13:46:29.000Z,12.11
2017-10-23T13:47:29.000Z,12.10
2017-10-23T13:48:29.000Z,12.10
2017-10-23T13:49:29.000Z,12.14
2017-10-23T13:50:29.000Z,12.16
2017-10-23T13:51:29.000Z,12.21
2017-10-23T13:52:29.000Z,12.23
2017-10-23T13:53:29.000Z,12.24
2017-10-23T13:54:29.000Z,12.25
2017-10-23T13:55:29.000Z,12.26
2017-10-23T13:56:29.000Z,12.29
2017-10-23T13:57:29.000Z,12.33
2017-10-23T13:58:29.000Z,12.34
2017-10-23T13:59:29.000Z,12.39
2017-10-23T14:00:29.000Z,12.33
2017-10-23T14:01:29.000Z,12.34
2017-10-23T14:02:29.000Z,12.33
2017-10-23T14:03:29.000Z,12.30
2017-10-23T14:04:29.000Z,12.26
2017-10-23T14:05:29.000Z,12.30
2017-10-23T14:06:29.000Z,12.31
2017-10-23T14:07:29.000Z,12.27
2017-10-23T14:08:29.000Z,12.20
2017-10-23T14:09:29.000Z,12.17
2017-10-23T14:10:29.000Z,12.16
2017-10-23T19:06:43.000Z,9.97
2017-10-23T19:07:30.000Z,10.00
2017-10-23T19:08:30.000Z,10.05
2017-10-23T19:09:30.000Z,10.08
2017-10-23T19:10:30.000Z,10.11
2017-10-23T19:11:30.000Z,10.14
2017-10-23T19:12:30.000Z,10.15